createdAt,value
2023-04-07T00:02:25.773Z,72.38
2023-04-07T00:04:53.865Z,72.73
2023-04-07T00:07:21.894Z,73.46
2023-04-07T00:09:49.936Z,72.88
2023-04-07T00:12:17.949Z,72.98
2023-04-07T00:14:47.222Z,73.30
2023-04-07T00:17:15.123Z,72.73
2023-04-07T00:19:43.883Z,72.17
2023-04-07T00:22:11.840Z,71.42
2023-04-07T00:24:39.580Z,70.06
2023-04-07T00:27:07.473Z,69.30
2023-04-07T00:29:35.403Z,68.70
2023-04-07T00:32:04.865Z,66.70
2023-04-07T00:34:33.541Z,66.64
2023-04-07T00:37:01.245Z,65.39
2023-04-07T00:39:28.976Z,64.52
2023-04-07T00:41:58.189Z,63.99
2023-04-07T00:44:27.526Z,63.67
2023-04-07T00:46:55.466Z,63.39
2023-04-07T00:49:24.682Z,62.78
2023-04-07T00:51:52.496Z,61.50
2023-04-07T00:54:20.797Z,60.70
2023-04-07T00:56:48.633Z,59.30
2023-04-07T00:59:16.922Z,57.39
2023-04-07T01:01:47.737Z,56.81
2023-04-07T01:04:23.780Z,56.81
2023-04-07T01:07:00.397Z,56.56
2023-04-07T01:09:39.732Z,56.61
2023-04-07T01:12:14.744Z,56.54
2023-04-07T01:14:48.145Z,56.65
2023-04-07T01:17:40.399Z,57.23
2023-04-07T01:20:12.591Z,57.81
2023-04-07T01:22:47.067Z,58.11
2023-04-07T01:25:30.449Z,57.62
2023-04-07T01:28:15.195Z,57.82
2023-04-07T01:30:45.933Z,57.79
2023-04-07T01:33:15.757Z,58.05
2023-04-07T01:35:44.358Z,58.16
2023-04-07T01:38:13.621Z,58.30
2023-04-07T01:40:42.262Z,58.45
2023-04-07T01:43:11.152Z,58.78
2023-04-07T01:45:40.638Z,59.31
2023-04-07T01:48:10.964Z,59.25
2023-04-07T01:50:40.666Z,59.43
2023-04-07T01:53:09.329Z,59.78
2023-04-07T01:55:37.144Z,60.01
2023-04-07T01:58:09.866Z,60.27
2023-04-07T02:00:42.373Z,60.71
2023-04-07T02:03:21.832Z,61.22
2023-04-07T02:05:53.545Z,61.25
2023-04-07T02:08:25.437Z,61.80
2023-04-07T02:10:54.541Z,61.98
2023-04-07T02:13:23.580Z,61.03
2023-04-07T02:15:54.715Z,61.15
2023-04-07T02:18:25.600Z,61.58
2023-04-07T02:20:54.503Z,61.87
2023-04-07T02:23:22.379Z,62.11
2023-04-07T02:25:50.190Z,63.02
2023-04-07T02:28:18.011Z,64.19
2023-04-07T02:30:46.873Z,65.74
2023-04-07T02:33:14.680Z,67.62
2023-04-07T02:35:45.976Z,69.96
2023-04-07T02:38:13.888Z,71.94
2023-04-07T02:40:41.980Z,77.09
2023-04-07T02:43:09.766Z,80.87
2023-04-07T02:45:37.632Z,87.01
2023-04-07T02:48:05.818Z,92.11
2023-04-07T02:50:33.565Z,100.00
2023-04-07T02:53:02.884Z,100.00
2023-04-07T02:55:30.640Z,100.00
2023-04-07T02:57:58.384Z,100.00
2023-04-07T03:00:36.604Z,100.00
2023-04-07T03:03:10.383Z,100.00
2023-04-07T03:05:40.979Z,100.00
2023-04-07T03:08:13.099Z,100.00
2023-04-07T03:10:41.622Z,100.00
2023-04-07T03:13:12.725Z,100.00
2023-04-07T03:15:41.075Z,100.00
2023-04-07T03:18:08.985Z,100.00
2023-04-07T03:20:37.041Z,100.00
2023-04-07T03:23:13.039Z,100.00
2023-04-07T03:25:40.974Z,100.00
2023-04-07T03:28:09.247Z,100.00
2023-04-07T03:30:39.658Z,100.00
2023-04-07T03:33:08.302Z,100.00
2023-04-07T03:35:36.115Z,100.00
2023-04-07T03:38:03.965Z,100.00
2023-04-07T03:40:33.715Z,100.00
2023-04-07T03:43:01.840Z,100.00
2023-04-07T03:45:30.533Z,100.00
2023-04-07T03:47:58.784Z,100.00
2023-04-07T03:50:26.815Z,100.00
2023-04-07T03:53:08.289Z,100.00
2023-04-07T03:55:38.925Z,100.00
2023-04-07T03:58:14.804Z,100.00
2023-04-07T04:00:43.920Z,100.00
2023-04-07T04:03:13.530Z,100.00
2023-04-07T04:06:04.305Z,100.00
2023-04-07T04:08:33.778Z,100.00
2023-04-07T04:11:03.484Z,100.00
2023-04-07T04:13:37.487Z,100.00
2023-04-07T04:16:07.593Z,100.00
2023-04-07T04:18:37.737Z,100.00
2023-04-07T04:21:08.629Z,100.00
2023-04-07T04:23:37.832Z,100.00
2023-04-07T04:26:07.152Z,100.00
2023-04-07T04:28:35.712Z,100.00
2023-04-07T04:31:06.025Z,100.00
2023-04-07T04:33:40.467Z,100.00
2023-04-07T04:36:08.639Z,100.00
2023-04-07T04:38:36.776Z,100.00
2023-04-07T04:41:18.645Z,100.00
2023-04-07T04:43:47.982Z,100.00
2023-04-07T04:46:20.327Z,100.00
2023-04-07T04:48:49.406Z,100.00
2023-04-07T04:51:18.831Z,100.00
2023-04-07T04:53:51.146Z,100.00
2023-04-07T04:56:21.831Z,100.00
2023-04-07T04:58:51.012Z,100.00
2023-04-07T05:01:33.646Z,100.00
2023-04-07T05:04:10.738Z,100.00
2023-04-07T05:06:43.427Z,100.00
2023-04-07T05:09:13.900Z,100.00
2023-04-07T05:11:48.567Z,100.00
2023-04-07T05:14:16.752Z,100.00
2023-04-07T05:16:51.457Z,100.00
2023-04-07T05:19:23.599Z,100.00
2023-04-07T05:21:54.794Z,100.00
2023-04-07T05:24:26.097Z,100.00
2023-04-07T05:26:58.439Z,100.00
2023-04-07T05:29:27.216Z,100.00
2023-04-07T05:31:56.407Z,100.00
2023-04-07T05:34:24.892Z,100.00
2023-04-07T05:36:55.502Z,100.00
2023-04-07T05:39:23.277Z,100.00
2023-04-07T05:41:54.548Z,100.00
2023-04-07T05:44:27.510Z,100.00
2023-04-07T05:46:56.135Z,100.00
2023-04-07T05:49:26.587Z,100.00
2023-04-07T05:52:03.416Z,100.00
2023-04-07T05:54:31.811Z,100.00
2023-04-07T05:57:02.408Z,100.00
2023-04-07T05:59:33.263Z,100.00
2023-04-07T06:02:02.446Z,100.00
2023-04-07T06:04:31.607Z,100.00
2023-04-07T06:07:01.220Z,100.00
2023-04-07T06:09:29.104Z,100.00
2023-04-07T06:11:57.620Z,100.00
2023-04-07T06:14:25.927Z,100.00
2023-04-07T06:16:55.399Z,100.00
2023-04-07T06:19:23.857Z,100.00
2023-04-07T06:21:51.623Z,100.00
2023-04-07T06:24:22.645Z,100.00
2023-04-07T06:26:50.612Z,100.00
2023-04-07T06:29:18.495Z,100.00
2023-04-07T06:31:46.372Z,100.00
2023-04-07T06:34:16.506Z,100.00
2023-04-07T06:36:45.263Z,100.00
2023-04-07T06:39:13.894Z,100.00
2023-04-07T06:41:43.261Z,100.00
2023-04-07T06:44:11.551Z,100.00
2023-04-07T06:46:41.785Z,100.00
2023-04-07T06:49:09.837Z,100.00
2023-04-07T06:51:39.301Z,100.00
2023-04-07T06:54:12.765Z,100.00
2023-04-07T06:56:40.825Z,100.00
2023-04-07T06:59:08.890Z,100.00
2023-04-07T07:01:37.707Z,100.00
2023-04-07T07:04:07.104Z,100.00
2023-04-07T07:06:34.977Z,100.00
2023-04-07T07:09:04.553Z,100.00
2023-04-07T07:11:32.306Z,100.00
2023-04-07T07:14:00.128Z,100.00
2023-04-07T07:16:28.955Z,100.00
2023-04-07T07:18:56.690Z,100.00
2023-04-07T07:21:24.442Z,100.00
2023-04-07T07:23:52.229Z,100.00
2023-04-07T07:26:22.031Z,100.00
2023-04-07T07:28:49.940Z,100.00
2023-04-07T07:31:17.839Z,100.00
2023-04-07T07:33:51.528Z,100.00
2023-04-07T07:36:19.498Z,100.00
2023-04-07T07:38:48.061Z,100.00
2023-04-07T07:41:16.165Z,100.00
2023-04-07T07:43:45.601Z,100.00
2023-04-07T07:46:13.621Z,100.00
2023-04-07T07:48:41.548Z,100.00
2023-04-07T07:51:09.348Z,100.00
2023-04-07T07:53:37.493Z,100.00
2023-04-07T07:56:05.442Z,100.00
2023-04-07T07:58:33.254Z,100.00
2023-04-07T08:01:02.649Z,100.00
2023-04-07T08:03:30.641Z,100.00
2023-04-07T08:05:58.560Z,100.00
2023-04-07T08:08:26.361Z,100.00
2023-04-07T08:10:54.180Z,100.00
2023-04-07T08:13:21.897Z,100.00
2023-04-07T08:15:49.884Z,100.00
2023-04-07T08:18:19.444Z,100.00
2023-04-07T08:20:47.874Z,100.00
2023-04-07T08:23:15.895Z,100.00
2023-04-07T08:25:43.694Z,100.00
2023-04-07T08:28:11.493Z,100.00
2023-04-07T08:30:39.441Z,100.00
2023-04-07T08:33:07.442Z,100.00
2023-04-07T08:35:36.887Z,100.00
2023-04-07T08:38:05.737Z,100.00
2023-04-07T08:40:33.834Z,100.00
2023-04-07T08:43:06.194Z,100.00
2023-04-07T08:45:35.125Z,100.00
2023-04-07T08:48:12.302Z,100.00
2023-04-07T08:50:45.391Z,100.00
2023-04-07T08:53:14.422Z,100.00
2023-04-07T08:55:42.590Z,100.00
2023-04-07T08:58:12.422Z,100.00
2023-04-07T09:00:42.844Z,100.00
2023-04-07T09:03:11.950Z,100.00
2023-04-07T09:05:41.912Z,100.00
2023-04-07T09:08:09.668Z,100.00
2023-04-07T09:10:37.893Z,100.00
2023-04-07T09:13:06.175Z,100.00
2023-04-07T09:15:35.815Z,100.00
2023-04-07T09:18:05.097Z,100.00
2023-04-07T09:21:02.425Z,100.00
2023-04-07T09:23:32.529Z,100.00
2023-04-07T09:26:01.783Z,100.00
2023-04-07T09:28:46.653Z,100.00
2023-04-07T09:31:14.665Z,100.00
2023-04-07T09:33:42.937Z,100.00
2023-04-07T09:36:12.342Z,100.00
2023-04-07T09:38:41.664Z,100.00
2023-04-07T09:41:11.276Z,100.00
2023-04-07T09:43:41.634Z,100.00
2023-04-07T09:46:13.805Z,100.00
2023-04-07T09:48:42.652Z,100.00
2023-04-07T09:51:13.819Z,100.00
2023-04-07T09:53:47.693Z,100.00
2023-04-07T09:56:17.325Z,100.00
2023-04-07T09:58:47.176Z,100.00
2023-04-07T10:01:16.798Z,100.00
2023-04-07T10:03:47.408Z,100.00
2023-04-07T10:06:17.968Z,100.00
2023-04-07T10:08:46.124Z,100.00
2023-04-07T10:11:14.204Z,100.00
2023-04-07T10:13:42.514Z,100.00
2023-04-07T10:16:10.799Z,100.00
2023-04-07T10:18:42.937Z,100.00
2023-04-07T10:21:15.620Z,100.00
2023-04-07T10:23:56.152Z,100.00
2023-04-07T10:26:33.302Z,100.00
2023-04-07T10:29:06.014Z,100.00
2023-04-07T10:31:35.142Z,100.00
2023-04-07T10:34:05.878Z,100.00
2023-04-07T10:36:34.882Z,100.00
2023-04-07T10:39:24.279Z,100.00
2023-04-07T10:41:53.415Z,100.00
2023-04-07T10:44:50.965Z,100.00
2023-04-07T10:47:22.045Z,100.00
2023-04-07T10:50:19.397Z,100.00
2023-04-07T10:52:49.545Z,100.00
2023-04-07T10:55:34.980Z,100.00
2023-04-07T10:58:24.664Z,100.00
2023-04-07T11:01:24.473Z,100.00
2023-04-07T11:03:59.166Z,100.00
2023-04-07T11:06:30.332Z,100.00
2023-04-07T11:09:01.132Z,100.00
2023-04-07T11:11:44.722Z,100.00
2023-04-07T11:14:13.203Z,100.00
2023-04-07T11:16:46.162Z,100.00
2023-04-07T11:19:19.354Z,100.00
2023-04-07T11:21:47.947Z,100.00
2023-04-07T11:24:34.185Z,100.00
2023-04-07T11:27:04.072Z,100.00
2023-04-07T11:29:33.028Z,100.00
2023-04-07T11:32:03.523Z,100.00
2023-04-07T11:34:32.275Z,100.00
2023-04-07T11:37:19.630Z,100.00
2023-04-07T11:39:54.897Z,100.00
2023-04-07T11:42:34.566Z,100.00
2023-04-07T11:45:02.390Z,100.00
2023-04-07T11:47:37.215Z,100.00
2023-04-07T11:50:06.407Z,100.00
2023-04-07T11:52:42.907Z,100.00
2023-04-07T11:55:21.522Z,100.00
2023-04-07T11:57:52.310Z,100.00
2023-04-07T12:00:21.523Z,100.00
2023-04-07T12:02:49.408Z,100.00
2023-04-07T12:05:17.667Z,100.00
2023-04-07T12:07:55.436Z,100.00
2023-04-07T12:10:25.572Z,100.00
2023-04-07T12:12:54.729Z,100.00
2023-04-07T12:15:22.949Z,100.00
2023-04-07T12:17:50.817Z,100.00
2023-04-07T12:20:19.054Z,100.00
2023-04-07T12:22:47.522Z,100.00
2023-04-07T12:25:15.413Z,100.00
2023-04-07T12:27:43.943Z,100.00
2023-04-07T12:30:14.392Z,100.00
2023-04-07T12:32:42.667Z,100.00
2023-04-07T12:35:10.562Z,100.00
2023-04-07T12:37:39.607Z,100.00
2023-04-07T12:40:08.874Z,100.00
2023-04-07T12:42:36.943Z,100.00
2023-04-07T12:45:05.434Z,100.00
2023-04-07T12:47:35.051Z,100.00
2023-04-07T12:50:03.685Z,100.00
2023-04-07T12:52:32.016Z,100.00
2023-04-07T12:54:59.778Z,100.00
2023-04-07T12:57:27.570Z,100.00
2023-04-07T12:59:55.406Z,100.00
2023-04-07T13:02:23.502Z,100.00
2023-04-07T13:04:53.013Z,100.00
2023-04-07T13:07:21.932Z,100.00
2023-04-07T13:09:49.672Z,100.00
2023-04-07T13:12:17.940Z,100.00
2023-04-07T13:14:56.875Z,100.00
2023-04-07T13:17:29.000Z,100.00
2023-04-07T13:19:59.205Z,100.00
2023-04-07T13:22:27.549Z,100.00
2023-04-07T13:24:55.634Z,100.00
2023-04-07T13:27:23.405Z,100.00
2023-04-07T13:29:51.139Z,100.00
2023-04-07T13:32:18.947Z,100.00
2023-04-07T13:34:46.720Z,100.00
2023-04-07T13:37:16.640Z,100.00
2023-04-07T13:39:44.461Z,100.00
2023-04-07T13:42:12.746Z,100.00
2023-04-07T13:44:40.484Z,100.00
2023-04-07T13:47:08.736Z,100.00
2023-04-07T13:49:36.839Z,100.00
2023-04-07T13:52:04.678Z,100.00
2023-04-07T13:54:33.950Z,100.00
2023-04-07T13:57:01.900Z,100.00
2023-04-07T13:59:29.657Z,100.00
2023-04-07T14:01:57.549Z,100.00
2023-04-07T14:04:25.462Z,100.00
2023-04-07T14:06:53.279Z,100.00
2023-04-07T14:09:21.394Z,100.00
2023-04-07T14:11:50.582Z,100.00
2023-04-07T14:14:18.367Z,100.00
2023-04-07T14:16:46.169Z,100.00
2023-04-07T14:19:14.248Z,100.00
2023-04-07T14:21:42.124Z,100.00
2023-04-07T14:24:09.926Z,100.00
2023-04-07T14:26:37.754Z,100.00
2023-04-07T14:29:06.895Z,100.00
2023-04-07T14:31:35.100Z,100.00
2023-04-07T14:34:02.945Z,100.00
2023-04-07T14:36:31.588Z,100.00
2023-04-07T14:38:59.483Z,100.00
2023-04-07T14:41:27.226Z,100.00
2023-04-07T14:43:56.721Z,100.00
2023-04-07T14:46:27.414Z,100.00
2023-04-07T14:48:55.919Z,100.00
2023-04-07T14:51:23.638Z,100.00
2023-04-07T14:53:56.122Z,100.00
2023-04-07T14:56:25.756Z,100.00
2023-04-07T14:58:53.486Z,100.00
2023-04-07T15:01:21.529Z,100.00
2023-04-07T15:03:52.733Z,100.00
2023-04-07T15:06:21.162Z,100.00
2023-04-07T15:08:49.016Z,100.00
2023-04-07T15:11:16.724Z,100.00
2023-04-07T15:13:44.465Z,100.00
2023-04-07T15:16:14.099Z,100.00
2023-04-07T15:18:44.437Z,100.00
2023-04-07T15:21:15.599Z,100.00
2023-04-07T15:23:44.102Z,100.00
2023-04-07T15:26:11.827Z,100.00
2023-04-07T15:28:40.080Z,100.00
2023-04-07T15:31:09.898Z,100.00
2023-04-07T15:33:38.900Z,100.00
2023-04-07T15:36:07.958Z,100.00
2023-04-07T15:38:38.875Z,100.00
2023-04-07T15:41:07.113Z,100.00
2023-04-07T15:43:35.605Z,100.00
2023-04-07T15:46:03.372Z,100.00
2023-04-07T15:48:31.442Z,100.00
2023-04-07T15:50:59.358Z,100.00
2023-04-07T15:53:27.240Z,100.00
2023-04-07T15:55:56.415Z,100.00
2023-04-07T15:58:24.217Z,100.00
2023-04-07T16:00:52.642Z,100.00
2023-04-07T16:03:20.727Z,100.00
2023-04-07T16:05:48.594Z,100.00
2023-04-07T16:08:16.296Z,100.00
2023-04-07T16:10:44.433Z,100.00
2023-04-07T16:13:13.631Z,100.00
2023-04-07T16:15:41.931Z,100.00
2023-04-07T16:18:12.077Z,100.00
2023-04-07T16:20:39.982Z,100.00
2023-04-07T16:23:07.735Z,100.00
2023-04-07T16:25:36.344Z,100.00
2023-04-07T16:28:04.337Z,100.00
2023-04-07T16:30:33.602Z,100.00
2023-04-07T16:33:01.570Z,100.00
2023-04-07T16:35:32.588Z,100.00
2023-04-07T16:38:04.100Z,100.00
2023-04-07T16:40:32.035Z,100.00
2023-04-07T16:42:59.935Z,100.00
2023-04-07T16:45:28.034Z,100.00
2023-04-07T16:47:57.342Z,100.00
2023-04-07T16:50:25.065Z,100.00
2023-04-07T16:52:53.034Z,100.00
2023-04-07T16:55:21.113Z,100.00
2023-04-07T16:57:50.093Z,100.00
2023-04-07T17:00:19.295Z,100.00
2023-04-07T17:02:47.177Z,100.00
2023-04-07T17:05:17.261Z,100.00
2023-04-07T17:07:44.989Z,100.00
2023-04-07T17:10:13.985Z,100.00
2023-04-07T17:12:41.710Z,100.00
2023-04-07T17:15:10.204Z,100.00
2023-04-07T17:17:39.240Z,100.00
2023-04-07T17:20:08.223Z,100.00
2023-04-07T17:22:37.425Z,100.00
2023-04-07T17:25:06.567Z,100.00
2023-04-07T17:27:34.812Z,100.00
2023-04-07T17:30:03.129Z,100.00
2023-04-07T17:32:30.993Z,100.00
2023-04-07T17:34:58.917Z,100.00
2023-04-07T17:37:26.795Z,100.00
2023-04-07T17:39:56.005Z,100.00
2023-04-07T17:42:23.871Z,100.00
2023-04-07T17:44:53.703Z,100.00
2023-04-07T17:47:21.664Z,100.00
2023-04-07T17:49:49.403Z,100.00
2023-04-07T17:52:17.512Z,100.00
2023-04-07T17:54:45.263Z,100.00
2023-04-07T17:57:15.920Z,100.00
2023-04-07T17:59:43.752Z,100.00
2023-04-07T18:02:11.813Z,100.00
2023-04-07T18:04:40.474Z,100.00
2023-04-07T18:07:08.786Z,100.00
2023-04-07T18:09:36.833Z,100.00
2023-04-07T18:12:04.854Z,100.00
2023-04-07T18:14:34.351Z,100.00
2023-04-07T18:17:02.262Z,100.00
2023-04-07T18:19:31.224Z,100.00
2023-04-07T18:22:00.177Z,100.00
2023-04-07T18:24:27.995Z,100.00
2023-04-07T18:26:56.756Z,100.00
2023-04-07T18:29:24.688Z,100.00
2023-04-07T18:31:54.118Z,100.00
2023-04-07T18:34:21.918Z,100.00
2023-04-07T18:36:50.100Z,100.00
2023-04-07T18:39:17.834Z,100.00
2023-04-07T18:41:47.520Z,100.00
2023-04-07T18:44:15.964Z,100.00
2023-04-07T18:46:44.180Z,100.00
2023-04-07T18:49:13.534Z,100.00
2023-04-07T18:51:42.426Z,100.00
2023-04-07T18:54:10.340Z,100.00
2023-04-07T18:56:38.422Z,100.00
2023-04-07T18:59:07.224Z,100.00
2023-04-07T19:01:35.142Z,100.00
2023-04-07T19:04:03.717Z,100.00
2023-04-07T19:06:33.624Z,100.00
2023-04-07T19:09:03.810Z,100.00
2023-04-07T19:11:31.551Z,100.00
2023-04-07T19:13:59.392Z,100.00
2023-04-07T19:16:27.588Z,100.00
2023-04-07T19:18:55.646Z,100.00
2023-04-07T19:21:23.536Z,100.00
2023-04-07T19:23:52.917Z,100.00
2023-04-07T19:26:21.412Z,100.00
2023-04-07T19:28:49.701Z,100.00
2023-04-07T19:31:18.101Z,100.00
2023-04-07T19:33:46.017Z,100.00
2023-04-07T19:36:14.129Z,100.00
2023-04-07T19:38:41.999Z,100.00
2023-04-07T19:41:11.377Z,100.00
2023-04-07T19:43:39.082Z,100.00
2023-04-07T19:46:08.874Z,100.00
2023-04-07T19:48:42.482Z,100.00
2023-04-07T19:51:10.248Z,100.00
2023-04-07T19:53:38.035Z,100.00
2023-04-07T19:56:06.181Z,100.00
2023-04-07T19:58:35.600Z,100.00
2023-04-07T20:01:04.491Z,100.00
2023-04-07T20:03:32.545Z,100.00
2023-04-07T20:06:01.075Z,100.00
2023-04-07T20:08:28.873Z,100.00
2023-04-07T20:10:56.763Z,100.00
2023-04-07T20:13:24.588Z,100.00
2023-04-07T20:15:53.831Z,100.00
2023-04-07T20:18:21.563Z,100.00
2023-04-07T20:20:50.296Z,100.00
2023-04-07T20:23:22.126Z,100.00
2023-04-07T20:25:50.036Z,100.00
2023-04-07T20:28:17.777Z,100.00
2023-04-07T20:30:46.333Z,100.00
2023-04-07T20:33:15.708Z,100.00
2023-04-07T20:35:43.654Z,100.00
2023-04-07T20:38:11.607Z,100.00
2023-04-07T20:40:39.462Z,100.00
2023-04-07T20:43:07.477Z,100.00
2023-04-07T20:45:35.250Z,100.00
2023-04-07T20:48:03.128Z,100.00
2023-04-07T20:50:33.229Z,100.00
2023-04-07T20:53:01.305Z,100.00
2023-04-07T20:55:29.540Z,100.00
2023-04-07T20:57:57.417Z,100.00
2023-04-07T21:00:25.983Z,100.00
2023-04-07T21:02:54.384Z,100.00
2023-04-07T21:05:22.423Z,100.00
2023-04-07T21:07:51.559Z,100.00
2023-04-07T21:10:19.608Z,100.00
2023-04-07T21:12:47.524Z,100.00
2023-04-07T21:15:15.785Z,100.00
2023-04-07T21:17:43.727Z,100.00
2023-04-07T21:20:12.569Z,100.00
2023-04-07T21:22:40.481Z,100.00
2023-04-07T21:25:10.726Z,100.00
2023-04-07T21:27:38.579Z,100.00
2023-04-07T21:30:07.260Z,100.00
2023-04-07T21:32:35.207Z,100.00
2023-04-07T21:35:03.740Z,100.00
2023-04-07T21:37:31.950Z,100.00
2023-04-07T21:39:59.716Z,100.00
2023-04-07T21:42:28.916Z,100.00
2023-04-07T21:44:57.039Z,100.00
2023-04-07T21:47:24.976Z,100.00
2023-04-07T21:49:53.399Z,100.00
2023-04-07T21:52:21.297Z,100.00
2023-04-07T21:54:49.102Z,100.00
2023-04-07T21:57:16.927Z,100.00
2023-04-07T21:59:46.188Z,100.00
2023-04-07T22:02:14.422Z,100.00
2023-04-07T22:04:42.837Z,100.00
2023-04-07T22:07:11.568Z,100.00
2023-04-07T22:09:39.443Z,100.00
2023-04-07T22:12:07.267Z,100.00
2023-04-07T22:14:35.025Z,100.00
2023-04-07T22:17:04.386Z,100.00
2023-04-07T22:19:32.275Z,100.00
2023-04-07T22:22:00.497Z,100.00
2023-04-07T22:24:28.357Z,100.00
2023-04-07T22:26:57.267Z,100.00
2023-04-07T22:29:25.118Z,100.00
2023-04-07T22:31:53.059Z,100.00
2023-04-07T22:34:22.631Z,100.00
2023-04-07T22:36:50.374Z,100.00
2023-04-07T22:39:18.152Z,100.00
2023-04-07T22:41:45.938Z,100.00
2023-04-07T22:44:13.910Z,100.00
2023-04-07T22:46:41.889Z,100.00
2023-04-07T22:49:09.803Z,100.00
2023-04-07T22:51:39.066Z,100.00
2023-04-07T22:54:06.839Z,100.00
2023-04-07T22:56:34.608Z,100.00
2023-04-07T22:59:05.642Z,100.00
2023-04-07T23:01:34.305Z,100.00
2023-04-07T23:04:02.314Z,100.00
2023-04-07T23:06:30.013Z,100.00
2023-04-07T23:08:59.616Z,100.00
2023-04-07T23:11:27.396Z,100.00
2023-04-07T23:13:55.302Z,100.00
2023-04-07T23:16:24.313Z,100.00
2023-04-07T23:18:52.352Z,100.00
2023-04-07T23:21:20.157Z,100.00
2023-04-07T23:23:48.669Z,100.00
2023-04-07T23:26:17.940Z,100.00
2023-04-07T23:28:46.283Z,100.00
2023-04-07T23:31:14.405Z,100.00
2023-04-07T23:33:42.321Z,100.00
2023-04-07T23:36:10.225Z,100.00
2023-04-07T23:38:39.497Z,100.00
2023-04-07T23:41:07.656Z,100.00
2023-04-07T23:43:36.849Z,100.00
2023-04-07T23:46:04.888Z,100.00
2023-04-07T23:48:32.703Z,100.00
2023-04-07T23:51:00.892Z,100.00
2023-04-07T23:53:28.853Z,100.00
2023-04-07T23:55:56.875Z,100.00
2023-04-07T23:58:25.293Z,100.00
